createdAt,value
2018-12-05T00:01:48.249Z,5.70
2018-12-05T00:04:16.580Z,5.70
2018-12-05T00:06:45.111Z,5.70
2018-12-05T00:09:13.451Z,5.70
2018-12-05T00:11:41.965Z,5.60
2018-12-05T00:14:10.348Z,5.50
2018-12-05T00:16:38.703Z,5.60
2018-12-05T00:19:07.088Z,5.70
2018-12-05T00:21:35.466Z,5.80
2018-12-05T00:24:03.783Z,5.80
2018-12-05T00:26:32.432Z,5.70
2018-12-05T00:29:00.880Z,5.70
2018-12-05T00:31:29.212Z,5.60
2018-12-05T00:33:57.560Z,5.60
2018-12-05T00:36:25.916Z,5.70
2018-12-05T00:38:54.259Z,5.60
2018-12-05T00:41:22.625Z,5.60
2018-12-05T00:43:51.035Z,5.60
2018-12-05T00:46:19.821Z,5.60
2018-12-05T00:48:48.120Z,5.40
2018-12-05T00:51:16.524Z,5.40
2018-12-05T00:53:44.879Z,5.50
2018-12-05T00:56:13.232Z,5.50
2018-12-05T00:58:41.712Z,5.50
2018-12-05T01:01:10.070Z,5.60
2018-12-05T01:03:38.400Z,5.60
2018-12-05T01:06:06.841Z,5.60
2018-12-05T01:08:35.224Z,5.70
2018-12-05T01:11:03.575Z,5.70
2018-12-05T01:13:31.936Z,5.70
2018-12-05T01:16:00.295Z,5.70
2018-12-05T01:18:28.629Z,5.70
2018-12-05T01:20:57.007Z,5.70
2018-12-05T01:23:25.348Z,5.60
2018-12-05T01:25:53.712Z,5.60
2018-12-05T01:28:22.068Z,5.60
2018-12-05T01:30:50.418Z,5.60
2018-12-05T01:33:18.792Z,5.60
2018-12-05T01:35:47.152Z,5.60
2018-12-05T01:38:15.509Z,5.60
2018-12-05T01:40:44.025Z,5.60
2018-12-05T01:43:12.378Z,5.60
2018-12-05T01:45:40.708Z,5.60
2018-12-05T01:48:09.076Z,5.60
2018-12-05T01:50:37.412Z,5.60
2018-12-05T01:53:05.800Z,5.60
2018-12-05T01:55:34.152Z,5.60
2018-12-05T01:58:02.548Z,5.60
2018-12-05T02:00:30.893Z,5.60
2018-12-05T02:02:59.229Z,5.60
2018-12-05T02:05:27.569Z,5.60
2018-12-05T02:07:55.929Z,5.60
2018-12-05T02:10:24.270Z,5.60
2018-12-05T02:12:52.652Z,5.60
2018-12-05T02:15:21.013Z,5.60
2018-12-05T02:17:49.483Z,5.60
2018-12-05T02:20:17.811Z,5.60
2018-12-05T02:22:46.156Z,5.60
2018-12-05T02:25:14.473Z,5.50
2018-12-05T02:27:42.852Z,5.50
2018-12-05T02:30:11.196Z,5.50
2018-12-05T02:32:39.524Z,5.40
2018-12-05T02:35:08.038Z,5.40
2018-12-05T02:37:36.481Z,5.40
2018-12-05T02:40:05.924Z,5.30
2018-12-05T02:42:34.252Z,5.30
2018-12-05T02:45:02.810Z,5.40
2018-12-05T02:47:31.273Z,5.30
2018-12-05T02:49:59.639Z,5.40
2018-12-05T02:52:28.025Z,5.30
2018-12-05T02:54:56.731Z,5.20
2018-12-05T02:57:25.726Z,5.10
2018-12-05T02:59:54.484Z,5.10
2018-12-05T03:02:22.784Z,5.10
2018-12-05T03:04:51.167Z,5.10
2018-12-05T03:07:19.497Z,5.10
2018-12-05T03:09:47.870Z,5.20
2018-12-05T03:12:16.175Z,5.20
2018-12-05T03:14:44.572Z,5.10
2018-12-05T03:17:13.000Z,5.10
2018-12-05T03:19:41.417Z,5.10
2018-12-05T03:22:09.728Z,5.10
2018-12-05T03:24:38.062Z,5.10
2018-12-05T03:27:06.536Z,5.10
2018-12-05T03:29:34.876Z,5.10
2018-12-05T03:32:03.217Z,5.10
2018-12-05T03:34:31.790Z,5.10
2018-12-05T03:37:00.158Z,5.10
2018-12-05T03:39:28.500Z,5.10
2018-12-05T03:41:56.856Z,5.10
2018-12-05T03:44:25.285Z,5.20
2018-12-05T03:46:53.793Z,5.20
2018-12-05T03:49:22.155Z,5.20
2018-12-05T03:51:50.537Z,5.10
2018-12-05T03:54:18.858Z,5.20
2018-12-05T03:56:47.325Z,5.20
2018-12-05T03:59:15.932Z,5.20
2018-12-05T04:01:44.248Z,5.30
2018-12-05T04:04:12.616Z,5.30
2018-12-05T04:06:41.066Z,5.20
2018-12-05T04:09:09.416Z,5.20
2018-12-05T04:11:37.761Z,5.20
2018-12-05T04:14:06.127Z,5.20
2018-12-05T04:16:34.440Z,5.20
2018-12-05T04:19:02.800Z,5.20
2018-12-05T04:21:31.206Z,5.30
2018-12-05T04:23:59.554Z,5.30
2018-12-05T04:26:28.132Z,5.20
2018-12-05T04:28:56.460Z,5.30
2018-12-05T04:31:24.776Z,5.40
2018-12-05T04:33:53.160Z,5.50
2018-12-05T04:36:21.506Z,5.50
2018-12-05T04:38:49.932Z,5.50
2018-12-05T04:41:18.632Z,5.50
2018-12-05T04:43:46.975Z,5.50
2018-12-05T04:46:15.336Z,5.50
2018-12-05T04:48:43.676Z,5.50
2018-12-05T04:51:12.005Z,5.40
2018-12-05T04:53:40.485Z,5.40
2018-12-05T04:56:08.921Z,5.50
2018-12-05T04:58:37.224Z,5.50
2018-12-05T05:01:05.621Z,5.50
2018-12-05T05:03:34.018Z,5.50
2018-12-05T05:06:02.425Z,5.40
2018-12-05T05:08:30.804Z,5.50
2018-12-05T05:10:59.112Z,5.50
2018-12-05T05:13:27.429Z,5.50
2018-12-05T05:15:55.884Z,5.50
2018-12-05T05:18:24.245Z,5.50
2018-12-05T05:20:52.630Z,5.50
2018-12-05T05:23:21.278Z,5.50
2018-12-05T05:25:49.660Z,5.50
2018-12-05T05:28:17.999Z,5.50
2018-12-05T05:30:46.403Z,5.40
2018-12-05T05:33:14.733Z,5.40
2018-12-05T05:35:43.077Z,5.50
2018-12-05T05:38:11.395Z,5.60
2018-12-05T05:40:39.795Z,5.60
2018-12-05T05:43:08.118Z,5.50
2018-12-05T05:45:36.494Z,5.60
2018-12-05T05:48:04.835Z,5.60
2018-12-05T05:50:33.209Z,5.60
2018-12-05T05:53:01.839Z,5.60
2018-12-05T05:55:30.184Z,5.60
2018-12-05T05:57:58.640Z,5.60
2018-12-05T06:00:27.252Z,5.60
2018-12-05T06:02:55.584Z,5.50
2018-12-05T06:05:23.940Z,5.50
2018-12-05T06:07:52.276Z,5.40
2018-12-05T06:10:20.629Z,5.40
2018-12-05T06:12:48.972Z,5.40
2018-12-05T06:15:17.411Z,5.50
2018-12-05T06:17:45.725Z,5.50
2018-12-05T06:20:14.314Z,5.60
2018-12-05T06:22:42.653Z,5.60
2018-12-05T06:25:11.126Z,5.50
2018-12-05T06:27:39.492Z,5.50
2018-12-05T06:30:08.195Z,5.60
2018-12-05T06:32:36.539Z,5.60
2018-12-05T06:35:05.387Z,5.60
2018-12-05T06:37:33.754Z,5.50
2018-12-05T06:40:02.079Z,5.50
2018-12-05T06:42:30.460Z,5.50
2018-12-05T06:44:58.828Z,5.40
2018-12-05T06:47:27.996Z,5.40
2018-12-05T06:49:56.493Z,5.50
2018-12-05T06:52:24.897Z,5.50
2018-12-05T06:54:53.415Z,5.50
2018-12-05T06:57:21.819Z,5.50
2018-12-05T06:59:50.256Z,5.60
2018-12-05T07:02:18.671Z,5.60
2018-12-05T07:04:47.111Z,5.70
2018-12-05T07:07:15.704Z,5.70
2018-12-05T07:09:44.345Z,5.70
2018-12-05T07:12:12.909Z,5.70
2018-12-05T07:14:41.245Z,5.70
2018-12-05T07:17:09.612Z,5.60
2018-12-05T07:19:38.036Z,5.60
2018-12-05T07:22:06.375Z,5.80
2018-12-05T07:24:34.704Z,5.90
2018-12-05T07:27:03.090Z,5.90
2018-12-05T07:29:31.423Z,5.90
2018-12-05T07:31:59.780Z,5.90
2018-12-05T07:34:28.112Z,6.00
2018-12-05T07:36:56.665Z,6.00
2018-12-05T07:39:24.996Z,6.10
2018-12-05T07:41:53.324Z,6.10
2018-12-05T07:44:21.693Z,6.10
2018-12-05T07:46:50.029Z,6.10
2018-12-05T07:49:18.395Z,6.20
2018-12-05T07:51:46.932Z,6.20
2018-12-05T07:54:15.431Z,6.20
2018-12-05T07:56:43.797Z,6.20
2018-12-05T07:59:12.242Z,6.20
2018-12-05T08:01:40.595Z,6.30
2018-12-05T08:04:08.916Z,6.40
2018-12-05T08:06:37.268Z,6.20
2018-12-05T08:09:08.111Z,6.20
2018-12-05T08:11:36.723Z,6.20
2018-12-05T08:14:06.559Z,6.20
2018-12-05T08:16:35.188Z,6.30
2018-12-05T08:19:03.523Z,6.40
2018-12-05T08:21:31.868Z,6.50
2018-12-05T08:24:00.184Z,6.40
2018-12-05T08:26:28.576Z,6.40
2018-12-05T08:28:56.968Z,6.50
2018-12-05T08:31:25.474Z,6.20
2018-12-05T08:33:53.925Z,6.40
2018-12-05T08:36:22.267Z,6.40
2018-12-05T08:38:50.592Z,6.40
2018-12-05T08:41:18.969Z,6.30
2018-12-05T08:43:47.281Z,6.20
2018-12-05T08:46:15.624Z,6.20
2018-12-05T08:48:44.037Z,6.20
2018-12-05T08:51:12.436Z,6.20
2018-12-05T08:53:40.778Z,6.30
2018-12-05T08:56:09.113Z,6.50
2018-12-05T08:58:37.455Z,6.60
2018-12-05T09:01:05.784Z,6.50
2018-12-05T09:03:34.137Z,6.40
2018-12-05T09:06:02.492Z,6.50
2018-12-05T09:08:30.900Z,6.70
2018-12-05T09:10:59.416Z,6.90
2018-12-05T09:13:27.860Z,6.90
2018-12-05T09:15:56.209Z,7.00
2018-12-05T09:18:24.523Z,7.10
2018-12-05T09:20:52.890Z,7.00
2018-12-05T09:23:21.283Z,6.90
2018-12-05T09:25:49.619Z,7.00
2018-12-05T09:28:18.193Z,7.20
2018-12-05T09:30:46.914Z,7.20
2018-12-05T09:33:15.252Z,7.30
2018-12-05T09:35:43.619Z,7.30
2018-12-05T09:38:11.938Z,7.30
2018-12-05T09:40:40.328Z,7.40
2018-12-05T09:43:09.132Z,7.40
2018-12-05T09:45:37.624Z,7.40
2018-12-05T09:48:05.934Z,7.40
2018-12-05T09:50:34.372Z,7.40
2018-12-05T09:53:02.748Z,7.40
2018-12-05T09:55:31.109Z,7.50
2018-12-05T09:58:00.414Z,7.40
2018-12-05T10:00:28.852Z,7.30
2018-12-05T10:02:57.355Z,7.40
2018-12-05T10:05:25.667Z,7.40
2018-12-05T10:07:54.020Z,7.60
2018-12-05T10:10:22.373Z,7.80
2018-12-05T10:12:51.128Z,7.70
2018-12-05T10:15:19.459Z,7.50
2018-12-05T10:17:47.803Z,7.50
2018-12-05T10:20:16.160Z,7.70
2018-12-05T10:22:44.508Z,8.00
2018-12-05T10:25:12.957Z,8.00
2018-12-05T10:27:41.456Z,8.10
2018-12-05T10:30:09.938Z,8.00
2018-12-05T10:32:38.344Z,8.10
2018-12-05T10:35:06.816Z,8.30
2018-12-05T10:37:35.157Z,8.30
2018-12-05T10:40:03.500Z,8.20
2018-12-05T10:42:31.936Z,8.20
2018-12-05T10:45:00.372Z,8.20
2018-12-05T10:47:28.717Z,8.10
2018-12-05T10:49:57.061Z,8.10
2018-12-05T10:52:25.475Z,8.20
2018-12-05T10:54:53.897Z,8.40
2018-12-05T10:57:22.274Z,8.30
2018-12-05T10:59:50.631Z,8.30
2018-12-05T11:02:24.375Z,8.60
2018-12-05T11:04:58.180Z,8.60
2018-12-05T11:07:31.974Z,8.40
2018-12-05T11:10:05.777Z,8.20
2018-12-05T11:12:39.592Z,8.00
2018-12-05T11:15:13.412Z,8.00
2018-12-05T11:17:46.016Z,8.10
2018-12-05T11:20:19.763Z,8.20
2018-12-05T11:22:53.805Z,8.50
2018-12-05T11:25:23.184Z,8.70
2018-12-05T11:27:51.538Z,8.80
2018-12-05T11:30:20.072Z,8.80
2018-12-05T11:32:48.419Z,8.90
2018-12-05T11:35:16.881Z,8.80
2018-12-05T11:37:45.394Z,8.70
2018-12-05T11:40:13.787Z,8.80
2018-12-05T11:42:42.111Z,8.90
2018-12-05T11:45:10.609Z,9.00
2018-12-05T11:47:38.920Z,9.00
2018-12-05T11:50:07.307Z,9.30
2018-12-05T11:52:35.652Z,9.40
2018-12-05T11:55:04.265Z,9.30
2018-12-05T11:57:32.745Z,9.20
2018-12-05T12:00:01.100Z,9.40
2018-12-05T12:02:29.513Z,9.50
2018-12-05T12:04:58.046Z,9.50
2018-12-05T12:07:26.389Z,9.60
2018-12-05T12:09:55.231Z,9.50
2018-12-05T12:12:29.158Z,9.40
2018-12-05T12:14:57.509Z,9.30
2018-12-05T12:17:26.208Z,9.80
2018-12-05T12:19:54.556Z,10.50
2018-12-05T12:22:22.905Z,11.00
2018-12-05T12:24:51.287Z,11.20
2018-12-05T12:27:19.617Z,11.30
2018-12-05T12:29:47.945Z,10.70
2018-12-05T12:32:16.530Z,10.40
2018-12-05T12:34:44.841Z,10.20
2018-12-05T12:37:13.172Z,10.00
2018-12-05T12:39:41.587Z,9.50
2018-12-05T12:42:09.984Z,9.50
2018-12-05T12:44:38.304Z,9.70
2018-12-05T12:47:06.841Z,10.00
2018-12-05T12:49:35.319Z,10.40
2018-12-05T12:52:03.665Z,10.60
2018-12-05T12:54:32.075Z,10.30
2018-12-05T12:57:00.412Z,10.30
2018-12-05T12:59:28.817Z,10.70
2018-12-05T13:01:57.168Z,10.10
2018-12-05T13:04:25.500Z,9.90
2018-12-05T13:06:54.020Z,10.30
2018-12-05T13:09:22.384Z,10.40
2018-12-05T13:11:50.693Z,10.30
2018-12-05T13:14:19.077Z,10.70
2018-12-05T13:16:47.420Z,10.40
2018-12-05T13:19:15.805Z,10.80
2018-12-05T13:21:44.156Z,10.70
2018-12-05T13:24:12.806Z,9.80
2018-12-05T13:26:41.161Z,9.80
2018-12-05T13:29:09.625Z,9.90
2018-12-05T13:31:37.935Z,9.50
2018-12-05T13:34:06.315Z,9.30
2018-12-05T13:36:34.760Z,9.60
2018-12-05T13:39:05.236Z,9.60
2018-12-05T13:41:33.562Z,9.60
2018-12-05T13:44:02.188Z,9.70
2018-12-05T13:46:30.678Z,9.30
2018-12-05T13:48:59.054Z,9.20
2018-12-05T13:51:27.386Z,9.40
2018-12-05T13:53:55.764Z,9.60
2018-12-05T13:56:24.119Z,9.70
2018-12-05T13:58:52.459Z,9.70
2018-12-05T14:01:20.820Z,9.60
2018-12-05T14:03:49.222Z,9.40
2018-12-05T14:06:17.548Z,9.50
2018-12-05T14:08:45.937Z,9.40
2018-12-05T14:11:14.288Z,9.40
2018-12-05T14:13:42.694Z,9.40
2018-12-05T14:16:11.049Z,9.30
2018-12-05T14:18:39.384Z,9.30
2018-12-05T14:21:07.724Z,9.30
2018-12-05T14:23:36.237Z,9.20
2018-12-05T14:26:04.576Z,9.20
2018-12-05T14:28:32.996Z,9.30
2018-12-05T14:31:01.336Z,9.30
2018-12-05T14:33:29.667Z,9.30
2018-12-05T14:35:58.032Z,9.30
2018-12-05T14:38:26.357Z,9.30
2018-12-05T14:40:54.861Z,9.30
2018-12-05T14:43:23.208Z,9.30
2018-12-05T14:45:51.636Z,9.30
2018-12-05T14:48:20.342Z,9.20
2018-12-05T14:50:48.778Z,9.20
2018-12-05T14:53:17.225Z,9.20
2018-12-05T14:55:45.603Z,9.20
2018-12-05T14:58:13.988Z,9.20
2018-12-05T15:00:42.666Z,9.10
2018-12-05T15:03:11.150Z,9.10
2018-12-05T15:05:39.469Z,9.00
2018-12-05T15:08:07.837Z,9.00
2018-12-05T15:10:36.188Z,9.00
2018-12-05T15:13:04.521Z,8.90
2018-12-05T15:15:32.949Z,8.70
2018-12-05T15:18:01.320Z,8.80
2018-12-05T15:20:29.835Z,8.70
2018-12-05T15:22:58.312Z,8.60
2018-12-05T15:25:26.808Z,8.60
2018-12-05T15:27:55.165Z,8.60
2018-12-05T15:30:23.507Z,8.70
2018-12-05T15:32:51.957Z,8.60
2018-12-05T15:35:20.368Z,8.50
2018-12-05T15:37:48.889Z,8.40
2018-12-05T15:40:17.311Z,8.40
2018-12-05T15:42:45.698Z,8.40
2018-12-05T15:45:21.391Z,8.30
2018-12-05T15:47:44.632Z,8.30
2018-12-05T15:50:12.972Z,8.20
2018-12-05T15:52:41.287Z,8.20
2018-12-05T15:55:09.880Z,8.20
2018-12-05T15:57:38.216Z,8.20
2018-12-05T16:00:07.983Z,8.10
2018-12-05T16:02:36.560Z,8.10
2018-12-05T16:05:05.849Z,8.00
2018-12-05T16:07:34.254Z,8.00
2018-12-05T16:10:02.668Z,8.00
2018-12-05T16:12:31.300Z,8.00
2018-12-05T16:14:59.631Z,8.00
2018-12-05T16:17:28.084Z,7.90
2018-12-05T16:19:56.478Z,7.90
2018-12-05T16:22:24.846Z,7.90
2018-12-05T16:24:53.341Z,7.90
2018-12-05T16:27:21.791Z,7.90
2018-12-05T16:29:50.142Z,7.80
2018-12-05T16:32:18.515Z,7.90
2018-12-05T16:34:47.320Z,7.80
2018-12-05T16:37:15.702Z,7.90
2018-12-05T16:39:44.048Z,7.90
2018-12-05T16:42:12.421Z,7.90
2018-12-05T16:44:40.829Z,7.90
2018-12-05T16:47:09.317Z,7.80
2018-12-05T16:49:39.606Z,7.90
2018-12-05T16:52:08.201Z,7.90
2018-12-05T16:54:36.908Z,7.80
2018-12-05T16:57:05.265Z,7.80
2018-12-05T16:59:33.731Z,7.70
2018-12-05T17:02:02.381Z,7.70
2018-12-05T17:04:30.734Z,7.70
2018-12-05T17:06:59.168Z,7.70
2018-12-05T17:09:27.601Z,7.60
2018-12-05T17:11:56.036Z,7.60
2018-12-05T17:14:24.415Z,7.60
2018-12-05T17:16:52.796Z,7.60
2018-12-05T17:19:21.229Z,7.60
2018-12-05T17:21:49.644Z,7.60
2018-12-05T17:24:18.013Z,7.50
2018-12-05T17:26:46.402Z,7.60
2018-12-05T17:29:14.781Z,7.50
2018-12-05T17:31:43.157Z,7.50
2018-12-05T17:34:11.617Z,7.40
2018-12-05T17:36:40.074Z,7.30
2018-12-05T17:39:09.028Z,7.40
2018-12-05T17:41:37.576Z,7.50
2018-12-05T17:44:05.980Z,7.30
2018-12-05T17:46:34.314Z,7.20
2018-12-05T17:49:02.743Z,7.10
2018-12-05T17:51:31.150Z,7.20
2018-12-05T17:53:59.478Z,7.20
2018-12-05T17:56:27.876Z,7.20
2018-12-05T17:58:56.745Z,7.20
2018-12-05T18:01:25.176Z,7.10
2018-12-05T18:03:53.748Z,7.20
2018-12-05T18:06:22.144Z,7.10
2018-12-05T18:08:50.490Z,7.00
2018-12-05T18:11:18.894Z,7.00
2018-12-05T18:13:47.327Z,7.10
2018-12-05T18:16:15.776Z,7.10
2018-12-05T18:18:44.120Z,7.10
2018-12-05T18:21:12.468Z,7.10
2018-12-05T18:23:40.878Z,7.10
2018-12-05T18:26:09.213Z,7.20
2018-12-05T18:28:37.678Z,7.10
2018-12-05T18:31:06.150Z,7.10
2018-12-05T18:33:34.484Z,7.10
2018-12-05T18:36:02.971Z,7.10
2018-12-05T18:38:31.324Z,7.00
2018-12-05T18:40:59.907Z,7.00
2018-12-05T18:43:28.250Z,7.00
2018-12-05T18:45:56.647Z,7.00
2018-12-05T18:48:25.020Z,7.10
2018-12-05T18:50:53.405Z,7.00
2018-12-05T18:53:21.788Z,7.00
2018-12-05T18:55:50.172Z,7.00
2018-12-05T18:58:18.501Z,7.00
2018-12-05T19:00:46.951Z,7.00
2018-12-05T19:03:15.496Z,7.00
2018-12-05T19:05:43.955Z,6.90
2018-12-05T19:08:12.317Z,6.90
2018-12-05T19:10:40.834Z,7.00
2018-12-05T19:13:09.216Z,7.00
2018-12-05T19:15:37.598Z,7.00
2018-12-05T19:18:06.001Z,7.10
2018-12-05T19:20:34.650Z,7.00
2018-12-05T19:23:03.000Z,6.90
2018-12-05T19:25:31.411Z,7.00
2018-12-05T19:27:59.793Z,7.00
2018-12-05T19:30:28.184Z,6.90
2018-12-05T19:32:56.569Z,6.90
2018-12-05T19:35:24.970Z,7.00
2018-12-05T19:37:53.368Z,7.00
2018-12-05T19:40:21.721Z,6.90
2018-12-05T19:42:50.350Z,6.90
2018-12-05T19:45:18.725Z,6.80
2018-12-05T19:47:47.097Z,6.80
2018-12-05T19:50:15.582Z,6.80
2018-12-05T19:52:43.965Z,6.80
2018-12-05T19:55:13.352Z,6.90
2018-12-05T19:57:41.799Z,6.90
2018-12-05T20:00:11.232Z,6.90
2018-12-05T20:02:39.708Z,6.80
2018-12-05T20:05:08.232Z,6.90
2018-12-05T20:07:36.616Z,7.00
2018-12-05T20:10:05.075Z,6.90
2018-12-05T20:12:33.559Z,6.80
2018-12-05T20:15:02.002Z,7.00
2018-12-05T20:17:30.433Z,7.00
2018-12-05T20:19:59.008Z,7.10
2018-12-05T20:22:27.514Z,7.20
2018-12-05T20:24:55.911Z,7.10
2018-12-05T20:27:24.530Z,7.10
2018-12-05T20:29:52.887Z,7.30
2018-12-05T20:32:21.251Z,7.30
2018-12-05T20:34:49.695Z,7.20
2018-12-05T20:37:18.117Z,7.20
2018-12-05T20:39:46.517Z,7.30
2018-12-05T20:42:14.905Z,7.30
2018-12-05T20:44:43.286Z,7.20
2018-12-05T20:47:11.838Z,7.10
2018-12-05T20:49:40.229Z,7.10
2018-12-05T20:52:08.836Z,7.10
2018-12-05T20:54:37.415Z,7.10
2018-12-05T20:57:05.881Z,7.10
2018-12-05T20:59:34.522Z,7.10
2018-12-05T21:02:02.919Z,7.10
2018-12-05T21:04:31.310Z,7.10
2018-12-05T21:06:59.893Z,7.10
2018-12-05T21:09:28.298Z,7.20
2018-12-05T21:11:56.681Z,7.20
2018-12-05T21:14:25.111Z,7.20
2018-12-05T21:16:53.486Z,7.20
2018-12-05T21:19:22.352Z,7.10
2018-12-05T21:21:51.089Z,7.10
2018-12-05T21:24:19.429Z,7.10
2018-12-05T21:26:47.942Z,7.10
2018-12-05T21:29:16.351Z,7.20
2018-12-05T21:31:44.768Z,7.30
2018-12-05T21:34:13.222Z,7.30
2018-12-05T21:36:41.671Z,7.30
2018-12-05T21:39:11.467Z,7.20
2018-12-05T21:41:39.998Z,7.10
2018-12-05T21:44:08.343Z,7.20
2018-12-05T21:46:36.796Z,7.20
2018-12-05T21:49:05.236Z,7.20
2018-12-05T21:51:33.628Z,7.30
2018-12-05T21:54:02.039Z,7.30
2018-12-05T21:56:30.476Z,7.30
2018-12-05T21:58:59.254Z,7.20
2018-12-05T22:01:27.640Z,7.00
2018-12-05T22:03:55.980Z,6.90
2018-12-05T22:06:24.384Z,6.80
2018-12-05T22:08:52.773Z,6.80
2018-12-05T22:11:21.126Z,6.90
2018-12-05T22:13:49.813Z,6.80
2018-12-05T22:16:18.230Z,6.80
2018-12-05T22:18:46.567Z,6.90
2018-12-05T22:21:15.041Z,7.00
2018-12-05T22:23:43.427Z,7.00
2018-12-05T22:26:11.849Z,6.90
2018-12-05T22:28:40.204Z,7.00
2018-12-05T22:31:08.642Z,7.10
2018-12-05T22:33:37.050Z,7.20
2018-12-05T22:36:05.432Z,7.20
2018-12-05T22:38:33.782Z,7.20
2018-12-05T22:41:02.644Z,7.10
2018-12-05T22:43:30.980Z,7.20
2018-12-05T22:45:59.341Z,7.20
2018-12-05T22:48:27.801Z,7.20
2018-12-05T22:50:56.136Z,7.30
2018-12-05T22:53:24.485Z,7.30
2018-12-05T22:55:53.063Z,7.30
2018-12-05T22:58:21.390Z,7.20
2018-12-05T23:00:52.421Z,7.20
2018-12-05T23:03:20.884Z,7.30
2018-12-05T23:05:49.223Z,7.30
2018-12-05T23:08:17.610Z,7.30
2018-12-05T23:10:45.968Z,7.30
2018-12-05T23:13:14.442Z,7.30
2018-12-05T23:15:42.987Z,7.30
2018-12-05T23:18:12.321Z,7.30
2018-12-05T23:20:40.670Z,7.30
2018-12-05T23:23:09.041Z,7.30
2018-12-05T23:25:37.399Z,7.30
2018-12-05T23:28:05.740Z,7.30
2018-12-05T23:30:34.387Z,7.20
2018-12-05T23:33:02.747Z,7.10
2018-12-05T23:35:31.168Z,7.10
2018-12-05T23:37:59.578Z,7.10
2018-12-05T23:43:31.429Z,7.20
2018-12-05T23:45:59.765Z,7.10
2018-12-05T23:48:28.204Z,7.00
2018-12-05T23:50:56.581Z,7.00
2018-12-05T23:53:24.922Z,6.90
2018-12-05T23:55:53.511Z,6.90
2018-12-05T23:58:22.039Z,6.90
